Check out our new BloomSky Weather System.

Active alerts

Houston, TX
  Details for Houston, TX Special Weather Statement
Galveston, TX
  Details for Galveston, TX Special Weather Statement


Thunder radar  blitzortung!


Rain radar more information rain snow radar


Visit our other weather sites:

Template documentation
and downloads

And another site



Weather Underground History page Text

Daily Summary for February 11, 2018 Units:  Both    English   Metric
« Previous Day
Next Day »
Daily Weekly Monthly Yearly Custom
  High: Low: Average:
Temperature: TemperatureF °F /  -17.8 °C 36.7 °F /  2.6 °C 39.3 °F /  4.1 °C
Dew Point: DewpointF °F /  -17.8 °C 32.0 °F /  0 °C 36.2 °F /  2.3 °C
Humidity: Humidity % 77 % 89 %
Wind Speed: WindSpeedMPH mph /  0 km/h - 4.7 mph /  7.6 km/h
Wind Gust: WindSpeedGustMPH mph /  0 km/h - -
Wind:- - WNW
Pressure: PressureIn in /  0 hPa 29.90 in /  1012.4 hPa -
Precipitation: 0.00 in /  0 mm    
Historical Graphs
 
 
Tabular Data for February 11, 2018
Time Temperature Dew Point Pressure Wind Wind Speed Wind Gust Humidity Rainfall Rate (Hourly)
TemperatureF °F /  -17.8 °C DewpointF °F /  -17.8 °C PressureIn in /  0 hPa Calm     Humidity % HourlyPrecipIn in /  0 mm
00:00 45.1 °F /  7.3 °C 44.6 °F /  7 °C 29.91 in /  1012.8 hPa NW 4.0 mph /  6.4 km/h 8.0 mph /  12.9 km/h 98 % 0.00 in /  0 mm
00:05 45.1 °F /  7.3 °C 44.6 °F /  7 °C 29.91 in /  1012.8 hPa NNW 2.0 mph /  3.2 km/h 6.0 mph /  9.7 km/h 98 % 0.00 in /  0 mm
00:10 45.1 °F /  7.3 °C 44.6 °F /  7 °C 29.90 in /  1012.4 hPa NNW 5.0 mph /  8 km/h 8.0 mph /  12.9 km/h 98 % 0.00 in /  0 mm
00:15 45.0 °F /  7.2 °C 44.4 °F /  6.9 °C 29.91 in /  1012.8 hPa NW 5.0 mph /  8 km/h 8.0 mph /  12.9 km/h 98 % 0.00 in /  0 mm
00:20 45.0 °F /  7.2 °C 44.4 °F /  6.9 °C 29.91 in /  1012.8 hPa NW 4.0 mph /  6.4 km/h 8.0 mph /  12.9 km/h 98 % 0.00 in /  0 mm
00:25 44.8 °F /  7.1 °C 44.2 °F /  6.8 °C 29.91 in /  1012.8 hPa NW 3.0 mph /  4.8 km/h 8.0 mph /  12.9 km/h 98 % 0.00 in /  0 mm
00:30 44.8 °F /  7.1 °C 44.2 °F /  6.8 °C 29.91 in /  1012.8 hPa NNW 4.0 mph /  6.4 km/h 7.0 mph /  11.3 km/h 98 % 0.00 in /  0 mm
00:35 44.4 °F /  6.9 °C 43.9 °F /  6.6 °C 29.91 in /  1012.8 hPa NNW 3.0 mph /  4.8 km/h 7.0 mph /  11.3 km/h 98 % 0.00 in /  0 mm
00:40 44.4 °F /  6.9 °C 43.9 °F /  6.6 °C 29.91 in /  1012.8 hPa NNW 5.0 mph /  8 km/h 7.0 mph /  11.3 km/h 98 % 0.00 in /  0 mm
00:45 44.1 °F /  6.7 °C 43.5 °F /  6.4 °C 29.91 in /  1012.8 hPa NNW 3.0 mph /  4.8 km/h 9.0 mph /  14.5 km/h 98 % 0.00 in /  0 mm
00:50 44.1 °F /  6.7 °C 43.5 °F /  6.4 °C 29.91 in /  1012.8 hPa NNW 2.0 mph /  3.2 km/h 9.0 mph /  14.5 km/h 98 % 0.00 in /  0 mm
00:55 44.1 °F /  6.7 °C 43.5 °F /  6.4 °C 29.91 in /  1012.8 hPa NW 3.0 mph /  4.8 km/h 9.0 mph /  14.5 km/h 98 % 0.00 in /  0 mm
01:00 44.1 °F /  6.7 °C 43.5 °F /  6.4 °C 29.91 in /  1012.8 hPa NNW 4.0 mph /  6.4 km/h 8.0 mph /  12.9 km/h 98 % 0.00 in /  0 mm
01:05 43.9 °F /  6.6 °C 43.3 °F /  6.3 °C 29.91 in /  1012.8 hPa NW 5.0 mph /  8 km/h 8.0 mph /  12.9 km/h 98 % 0.00 in /  0 mm
01:10 43.9 °F /  6.6 °C 43.3 °F /  6.3 °C 29.92 in /  1013.1 hPa NW 1.0 mph /  1.6 km/h 7.0 mph /  11.3 km/h 98 % 0.00 in /  0 mm
01:15 43.9 °F /  6.6 °C 43.7 °F /  6.5 °C 29.92 in /  1013.1 hPa NW 2.0 mph /  3.2 km/h 7.0 mph /  11.3 km/h 99 % 0.00 in /  0 mm
01:20 44.1 °F /  6.7 °C 43.9 °F /  6.6 °C 29.92 in /  1013.1 hPa NNW 4.0 mph /  6.4 km/h 5.0 mph /  8 km/h 99 % 0.00 in /  0 mm
01:25 44.1 °F /  6.7 °C 43.9 °F /  6.6 °C 29.92 in /  1013.1 hPa NNE 5.0 mph /  8 km/h 6.0 mph /  9.7 km/h 99 % 0.00 in /  0 mm
01:30 43.9 °F /  6.6 °C 43.7 °F /  6.5 °C 29.92 in /  1013.1 hPa NW 3.0 mph /  4.8 km/h 6.0 mph /  9.7 km/h 99 % 0.00 in /  0 mm
01:35 43.9 °F /  6.6 °C 43.7 °F /  6.5 °C 29.92 in /  1013.1 hPa NW 5.0 mph /  8 km/h 6.0 mph /  9.7 km/h 99 % 0.00 in /  0 mm
01:40 43.9 °F /  6.6 °C 43.7 °F /  6.5 °C 29.92 in /  1013.1 hPa NW 3.0 mph /  4.8 km/h 6.0 mph /  9.7 km/h 99 % 0.00 in /  0 mm
01:45 43.9 °F /  6.6 °C 43.7 °F /  6.5 °C 29.92 in /  1013.1 hPa WNW 3.0 mph /  4.8 km/h 6.0 mph /  9.7 km/h 99 % 0.00 in /  0 mm
01:50 43.9 °F /  6.6 °C 43.7 °F /  6.5 °C 29.92 in /  1013.1 hPa NW 2.0 mph /  3.2 km/h 6.0 mph /  9.7 km/h 99 % 0.00 in /  0 mm
01:55 43.9 °F /  6.6 °C 43.7 °F /  6.5 °C 29.92 in /  1013.1 hPa NW 4.0 mph /  6.4 km/h 6.0 mph /  9.7 km/h 99 % 0.00 in /  0 mm
02:00 43.7 °F /  6.5 °C 43.5 °F /  6.4 °C 29.92 in /  1013.1 hPa NNW 1.0 mph /  1.6 km/h 6.0 mph /  9.7 km/h 99 % 0.00 in /  0 mm
02:05 43.7 °F /  6.5 °C 43.5 °F /  6.4 °C 29.92 in /  1013.1 hPa NNW 3.0 mph /  4.8 km/h 5.0 mph /  8 km/h 99 % 0.00 in /  0 mm
02:10 43.7 °F /  6.5 °C 43.5 °F /  6.4 °C 29.92 in /  1013.1 hPa NNW 3.0 mph /  4.8 km/h 6.0 mph /  9.7 km/h 99 % 0.00 in /  0 mm
02:15 43.7 °F /  6.5 °C 43.5 °F /  6.4 °C 29.92 in /  1013.1 hPa NW 5.0 mph /  8 km/h 6.0 mph /  9.7 km/h 99 % 0.00 in /  0 mm
02:20 43.5 °F /  6.4 °C 43.3 °F /  6.3 °C 29.92 in /  1013.1 hPa NNW 1.0 mph /  1.6 km/h 6.0 mph /  9.7 km/h 99 % 0.00 in /  0 mm
02:25 43.5 °F /  6.4 °C 43.3 °F /  6.3 °C 29.92 in /  1013.1 hPa NNW 5.0 mph /  8 km/h 7.0 mph /  11.3 km/h 99 % 0.00 in /  0 mm
02:30 43.3 °F /  6.3 °C 43.2 °F /  6.2 °C 29.92 in /  1013.1 hPa WNW 4.0 mph /  6.4 km/h 8.0 mph /  12.9 km/h 99 % 0.00 in /  0 mm
02:35 43.3 °F /  6.3 °C 43.2 °F /  6.2 °C 29.92 in /  1013.1 hPa NW 2.0 mph /  3.2 km/h 8.0 mph /  12.9 km/h 99 % 0.00 in /  0 mm
02:40 43.3 °F /  6.3 °C 43.2 °F /  6.2 °C 29.92 in /  1013.1 hPa NNE 4.0 mph /  6.4 km/h 8.0 mph /  12.9 km/h 99 % 0.00 in /  0 mm
02:45 43.2 °F /  6.2 °C 43.0 °F /  6.1 °C 29.92 in /  1013.1 hPa NNW 5.0 mph /  8 km/h 8.0 mph /  12.9 km/h 99 % 0.00 in /  0 mm
02:50 43.2 °F /  6.2 °C 43.0 °F /  6.1 °C 29.93 in /  1013.4 hPa WNW 8.0 mph /  12.9 km/h 8.0 mph /  12.9 km/h 99 % 0.00 in /  0 mm
02:55 43.0 °F /  6.1 °C 42.8 °F /  6 °C 29.93 in /  1013.4 hPa NW 3.0 mph /  4.8 km/h 10.0 mph /  16.1 km/h 99 % 0.00 in /  0 mm
03:00 43.2 °F /  6.2 °C 43.0 °F /  6.1 °C 29.94 in /  1013.8 hPa WNW 3.0 mph /  4.8 km/h 10.0 mph /  16.1 km/h 99 % 0.00 in /  0 mm
03:05 43.0 °F /  6.1 °C 42.8 °F /  6 °C 29.94 in /  1013.8 hPa NW 3.0 mph /  4.8 km/h 10.0 mph /  16.1 km/h 99 % 0.00 in /  0 mm
03:10 42.8 °F /  6 °C 42.6 °F /  5.9 °C 29.94 in /  1013.8 hPa NNW 8.0 mph /  12.9 km/h 8.0 mph /  12.9 km/h 99 % 0.00 in /  0 mm
03:15 42.6 °F /  5.9 °C 42.4 °F /  5.8 °C 29.94 in /  1013.8 hPa NW 5.0 mph /  8 km/h 9.0 mph /  14.5 km/h 99 % 0.00 in /  0 mm
03:20 42.6 °F /  5.9 °C 42.4 °F /  5.8 °C 29.94 in /  1013.8 hPa WNW 4.0 mph /  6.4 km/h 12.0 mph /  19.3 km/h 99 % 0.00 in /  0 mm
03:25 42.4 °F /  5.8 °C 42.3 °F /  5.7 °C 29.94 in /  1013.8 hPa NW 4.0 mph /  6.4 km/h 12.0 mph /  19.3 km/h 99 % 0.00 in /  0 mm
03:30 42.4 °F /  5.8 °C 42.3 °F /  5.7 °C 29.94 in /  1013.8 hPa NNW 3.0 mph /  4.8 km/h 12.0 mph /  19.3 km/h 99 % 0.00 in /  0 mm
03:35 42.4 °F /  5.8 °C 42.3 °F /  5.7 °C 29.94 in /  1013.8 hPa NW 6.0 mph /  9.7 km/h 10.0 mph /  16.1 km/h 99 % 0.00 in /  0 mm
03:40 42.4 °F /  5.8 °C 42.3 °F /  5.7 °C 29.93 in /  1013.4 hPa NW 3.0 mph /  4.8 km/h 10.0 mph /  16.1 km/h 99 % 0.00 in /  0 mm
03:45 42.4 °F /  5.8 °C 42.3 °F /  5.7 °C 29.93 in /  1013.4 hPa NNW 5.0 mph /  8 km/h 10.0 mph /  16.1 km/h 99 % 0.00 in /  0 mm
03:50 42.3 °F /  5.7 °C 42.1 °F /  5.6 °C 29.94 in /  1013.8 hPa NNW 5.0 mph /  8 km/h 10.0 mph /  16.1 km/h 99 % 0.00 in /  0 mm
03:55 42.3 °F /  5.7 °C 42.1 °F /  5.6 °C 29.94 in /  1013.8 hPa NNW 3.0 mph /  4.8 km/h 10.0 mph /  16.1 km/h 99 % 0.00 in /  0 mm
04:00 42.3 °F /  5.7 °C 42.1 °F /  5.6 °C 29.94 in /  1013.8 hPa NNW 4.0 mph /  6.4 km/h 10.0 mph /  16.1 km/h 99 % 0.00 in /  0 mm
04:05 42.1 °F /  5.6 °C 41.9 °F /  5.5 °C 29.94 in /  1013.8 hPa NW 5.0 mph /  8 km/h 10.0 mph /  16.1 km/h 99 % 0.00 in /  0 mm
04:10 42.1 °F /  5.6 °C 41.5 °F /  5.3 °C 29.94 in /  1013.8 hPa NW 6.0 mph /  9.7 km/h 10.0 mph /  16.1 km/h 98 % 0.00 in /  0 mm
04:15 41.7 °F /  5.4 °C 41.2 °F /  5.1 °C 29.93 in /  1013.4 hPa WNW 4.0 mph /  6.4 km/h 12.0 mph /  19.3 km/h 98 % 0.00 in /  0 mm
04:20 41.5 °F /  5.3 °C 41.0 °F /  5 °C 29.94 in /  1013.8 hPa NNW 4.0 mph /  6.4 km/h 12.0 mph /  19.3 km/h 98 % 0.00 in /  0 mm
04:25 41.5 °F /  5.3 °C 41.0 °F /  5 °C 29.95 in /  1014.1 hPa NNW 6.0 mph /  9.7 km/h 12.0 mph /  19.3 km/h 98 % 0.00 in /  0 mm
04:31 41.4 °F /  5.2 °C 41.2 °F /  5.1 °C 29.95 in /  1014.1 hPa North 4.0 mph /  6.4 km/h 10.0 mph /  16.1 km/h 99 % 0.00 in /  0 mm
04:36 41.4 °F /  5.2 °C 41.2 °F /  5.1 °C 29.96 in /  1014.4 hPa North 3.0 mph /  4.8 km/h 10.0 mph /  16.1 km/h 99 % 0.00 in /  0 mm
04:41 41.2 °F /  5.1 °C 41.0 °F /  5 °C 29.96 in /  1014.4 hPa WNW 2.0 mph /  3.2 km/h 9.0 mph /  14.5 km/h 99 % 0.00 in /  0 mm
04:46 41.2 °F /  5.1 °C 40.6 °F /  4.8 °C 29.96 in /  1014.4 hPa NNW 5.0 mph /  8 km/h 10.0 mph /  16.1 km/h 98 % 0.00 in /  0 mm
04:51 40.6 °F /  4.8 °C 40.1 °F /  4.5 °C 29.96 in /  1014.4 hPa West 4.0 mph /  6.4 km/h 11.0 mph /  17.7 km/h 98 % 0.00 in /  0 mm
04:56 40.5 °F /  4.7 °C 39.9 °F /  4.4 °C 29.96 in /  1014.4 hPa NNW 4.0 mph /  6.4 km/h 11.0 mph /  17.7 km/h 98 % 0.00 in /  0 mm
05:01 40.3 °F /  4.6 °C 39.7 °F /  4.3 °C 29.96 in /  1014.4 hPa WNW 6.0 mph /  9.7 km/h 15.0 mph /  24.1 km/h 98 % 0.00 in /  0 mm
05:06 39.9 °F /  4.4 °C 39.4 °F /  4.1 °C 29.96 in /  1014.4 hPa WNW 5.0 mph /  8 km/h 15.0 mph /  24.1 km/h 98 % 0.00 in /  0 mm
05:11 39.9 °F /  4.4 °C 39.4 °F /  4.1 °C 29.96 in /  1014.4 hPa NW 5.0 mph /  8 km/h 15.0 mph /  24.1 km/h 98 % 0.00 in /  0 mm
05:16 39.9 °F /  4.4 °C 39.4 °F /  4.1 °C 29.96 in /  1014.4 hPa NW 5.0 mph /  8 km/h 12.0 mph /  19.3 km/h 98 % 0.00 in /  0 mm
05:21 39.9 °F /  4.4 °C 39.4 °F /  4.1 °C 29.96 in /  1014.4 hPa NNW 2.0 mph /  3.2 km/h 12.0 mph /  19.3 km/h 98 % 0.00 in /  0 mm
05:26 39.9 °F /  4.4 °C 39.4 °F /  4.1 °C 29.96 in /  1014.4 hPa North 4.0 mph /  6.4 km/h 10.0 mph /  16.1 km/h 98 % 0.00 in /  0 mm
05:31 39.9 °F /  4.4 °C 39.4 °F /  4.1 °C 29.96 in /  1014.4 hPa NW 7.0 mph /  11.3 km/h 10.0 mph /  16.1 km/h 98 % 0.00 in /  0 mm
05:36 39.7 °F /  4.3 °C 39.0 °F /  3.9 °C 29.96 in /  1014.4 hPa WNW 3.0 mph /  4.8 km/h 11.0 mph /  17.7 km/h 97 % 0.00 in /  0 mm
05:41 39.7 °F /  4.3 °C 39.0 °F /  3.9 °C 29.97 in /  1014.8 hPa WNW 6.0 mph /  9.7 km/h 11.0 mph /  17.7 km/h 97 % 0.00 in /  0 mm
05:46 39.6 °F /  4.2 °C 38.8 °F /  3.8 °C 29.97 in /  1014.8 hPa NW 7.0 mph /  11.3 km/h 11.0 mph /  17.7 km/h 97 % 0.00 in /  0 mm
05:51 39.6 °F /  4.2 °C 38.8 °F /  3.8 °C 29.97 in /  1014.8 hPa NNE 8.0 mph /  12.9 km/h 13.0 mph /  20.9 km/h 97 % 0.00 in /  0 mm
05:56 39.6 °F /  4.2 °C 38.8 °F /  3.8 °C 29.97 in /  1014.8 hPa WNW 6.0 mph /  9.7 km/h 13.0 mph /  20.9 km/h 97 % 0.00 in /  0 mm
06:01 39.6 °F /  4.2 °C 38.8 °F /  3.8 °C 29.97 in /  1014.8 hPa NW 2.0 mph /  3.2 km/h 13.0 mph /  20.9 km/h 97 % 0.00 in /  0 mm
06:06 39.6 °F /  4.2 °C 38.8 °F /  3.8 °C 29.97 in /  1014.8 hPa NNW 5.0 mph /  8 km/h 13.0 mph /  20.9 km/h 97 % 0.00 in /  0 mm
06:11 39.6 °F /  4.2 °C 38.8 °F /  3.8 °C 29.97 in /  1014.8 hPa NW 4.0 mph /  6.4 km/h 13.0 mph /  20.9 km/h 97 % 0.00 in /  0 mm
06:16 39.6 °F /  4.2 °C 38.8 °F /  3.8 °C 29.98 in /  1015.1 hPa North 7.0 mph /  11.3 km/h 13.0 mph /  20.9 km/h 97 % 0.00 in /  0 mm
06:21 39.6 °F /  4.2 °C 38.8 °F /  3.8 °C 29.98 in /  1015.1 hPa NNW 7.0 mph /  11.3 km/h 13.0 mph /  20.9 km/h 97 % 0.00 in /  0 mm
06:26 39.6 °F /  4.2 °C 38.8 °F /  3.8 °C 29.98 in /  1015.1 hPa NNW 7.0 mph /  11.3 km/h 10.0 mph /  16.1 km/h 97 % 0.00 in /  0 mm
06:31 39.6 °F /  4.2 °C 38.8 °F /  3.8 °C 29.99 in /  1015.5 hPa NW 4.0 mph /  6.4 km/h 10.0 mph /  16.1 km/h 97 % 0.00 in /  0 mm
06:36 39.6 °F /  4.2 °C 38.8 °F /  3.8 °C 29.99 in /  1015.5 hPa WNW 4.0 mph /  6.4 km/h 10.0 mph /  16.1 km/h 97 % 0.00 in /  0 mm
06:41 39.6 °F /  4.2 °C 38.8 °F /  3.8 °C 30.00 in /  1015.8 hPa North 9.0 mph /  14.5 km/h 10.0 mph /  16.1 km/h 97 % 0.00 in /  0 mm
06:46 39.4 °F /  4.1 °C 38.3 °F /  3.5 °C 30.00 in /  1015.8 hPa NNW 4.0 mph /  6.4 km/h 13.0 mph /  20.9 km/h 96 % 0.00 in /  0 mm
06:51 39.4 °F /  4.1 °C 38.7 °F /  3.7 °C 30.00 in /  1015.8 hPa NNW 3.0 mph /  4.8 km/h 13.0 mph /  20.9 km/h 97 % 0.00 in /  0 mm
06:56 39.4 °F /  4.1 °C 38.3 °F /  3.5 °C 30.01 in /  1016.1 hPa NW 7.0 mph /  11.3 km/h 13.0 mph /  20.9 km/h 96 % 0.00 in /  0 mm
07:01 39.2 °F /  4 °C 38.1 °F /  3.4 °C 30.01 in /  1016.1 hPa NW 4.0 mph /  6.4 km/h 10.0 mph /  16.1 km/h 96 % 0.00 in /  0 mm
07:06 39.0 °F /  3.9 °C 37.9 °F /  3.3 °C 30.00 in /  1015.8 hPa NW 7.0 mph /  11.3 km/h 12.0 mph /  19.3 km/h 96 % 0.00 in /  0 mm
07:11 39.0 °F /  3.9 °C 37.9 °F /  3.3 °C 30.01 in /  1016.1 hPa NNW 9.0 mph /  14.5 km/h 13.0 mph /  20.9 km/h 96 % 0.00 in /  0 mm
07:16 39.0 °F /  3.9 °C 37.9 °F /  3.3 °C 30.01 in /  1016.1 hPa NNW 2.0 mph /  3.2 km/h 13.0 mph /  20.9 km/h 96 % 0.00 in /  0 mm
07:21 39.0 °F /  3.9 °C 37.9 °F /  3.3 °C 30.02 in /  1016.5 hPa NNW 6.0 mph /  9.7 km/h 13.0 mph /  20.9 km/h 96 % 0.00 in /  0 mm
07:26 38.8 °F /  3.8 °C 37.6 °F /  3.1 °C 30.02 in /  1016.5 hPa NW 4.0 mph /  6.4 km/h 13.0 mph /  20.9 km/h 95 % 0.00 in /  0 mm
07:31 38.8 °F /  3.8 °C 37.6 °F /  3.1 °C 30.03 in /  1016.8 hPa NNE 3.0 mph /  4.8 km/h 12.0 mph /  19.3 km/h 95 % 0.00 in /  0 mm
07:36 38.8 °F /  3.8 °C 37.6 °F /  3.1 °C 30.02 in /  1016.5 hPa NNW 8.0 mph /  12.9 km/h 12.0 mph /  19.3 km/h 95 % 0.00 in /  0 mm
07:41 38.7 °F /  3.7 °C 37.0 °F /  2.8 °C 30.03 in /  1016.8 hPa NNW 4.0 mph /  6.4 km/h 14.0 mph /  22.5 km/h 94 % 0.00 in /  0 mm
07:46 38.8 °F /  3.8 °C 37.2 °F /  2.9 °C 30.04 in /  1017.2 hPa NW 5.0 mph /  8 km/h 14.0 mph /  22.5 km/h 94 % 0.00 in /  0 mm
07:51 38.7 °F /  3.7 °C 37.0 °F /  2.8 °C 30.04 in /  1017.2 hPa NNW 5.0 mph /  8 km/h 14.0 mph /  22.5 km/h 94 % 0.00 in /  0 mm
07:56 38.7 °F /  3.7 °C 37.0 °F /  2.8 °C 30.04 in /  1017.2 hPa WNW 4.0 mph /  6.4 km/h 11.0 mph /  17.7 km/h 94 % 0.00 in /  0 mm
08:01 38.7 °F /  3.7 °C 37.0 °F /  2.8 °C 30.04 in /  1017.2 hPa NW 7.0 mph /  11.3 km/h 11.0 mph /  17.7 km/h 94 % 0.00 in /  0 mm
08:06 38.7 °F /  3.7 °C 37.0 °F /  2.8 °C 30.05 in /  1017.5 hPa NW 3.0 mph /  4.8 km/h 11.0 mph /  17.7 km/h 94 % 0.00 in /  0 mm
08:11 38.7 °F /  3.7 °C 36.9 °F /  2.7 °C 30.05 in /  1017.5 hPa NNW 7.0 mph /  11.3 km/h 12.0 mph /  19.3 km/h 93 % 0.00 in /  0 mm
08:16 38.5 °F /  3.6 °C 36.7 °F /  2.6 °C 30.05 in /  1017.5 hPa North 3.0 mph /  4.8 km/h 12.0 mph /  19.3 km/h 93 % 0.00 in /  0 mm
08:21 38.5 °F /  3.6 °C 36.7 °F /  2.6 °C 30.06 in /  1017.8 hPa NNE 6.0 mph /  9.7 km/h 12.0 mph /  19.3 km/h 93 % 0.00 in /  0 mm
08:26 38.5 °F /  3.6 °C 36.7 °F /  2.6 °C 30.06 in /  1017.8 hPa NW 9.0 mph /  14.5 km/h 11.0 mph /  17.7 km/h 93 % 0.00 in /  0 mm
08:31 38.5 °F /  3.6 °C 36.7 °F /  2.6 °C 30.06 in /  1017.8 hPa NNW 2.0 mph /  3.2 km/h 13.0 mph /  20.9 km/h 93 % 0.00 in /  0 mm
08:36 38.5 °F /  3.6 °C 36.7 °F /  2.6 °C 30.06 in /  1017.8 hPa NW 1.0 mph /  1.6 km/h 13.0 mph /  20.9 km/h 93 % 0.00 in /  0 mm
08:41 38.5 °F /  3.6 °C 36.7 °F /  2.6 °C 30.06 in /  1017.8 hPa NW 6.0 mph /  9.7 km/h 13.0 mph /  20.9 km/h 93 % 0.00 in /  0 mm
08:46 38.5 °F /  3.6 °C 36.3 °F /  2.4 °C 30.07 in /  1018.2 hPa NW 11.0 mph /  17.7 km/h 15.0 mph /  24.1 km/h 92 % 0.00 in /  0 mm
08:51 38.3 °F /  3.5 °C 36.5 °F /  2.5 °C 30.07 in /  1018.2 hPa NNW 2.0 mph /  3.2 km/h 16.0 mph /  25.7 km/h 93 % 0.00 in /  0 mm
08:56 38.1 °F /  3.4 °C 36.3 °F /  2.4 °C 30.07 in /  1018.2 hPa NNW 8.0 mph /  12.9 km/h 16.0 mph /  25.7 km/h 93 % 0.00 in /  0 mm
09:01 38.3 °F /  3.5 °C 36.5 °F /  2.5 °C 30.07 in /  1018.2 hPa NW 5.0 mph /  8 km/h 16.0 mph /  25.7 km/h 93 % 0.00 in /  0 mm
09:06 38.3 °F /  3.5 °C 36.5 °F /  2.5 °C 30.08 in /  1018.5 hPa NW 7.0 mph /  11.3 km/h 14.0 mph /  22.5 km/h 93 % 0.00 in /  0 mm
09:11 38.1 °F /  3.4 °C 36.0 °F /  2.2 °C 30.09 in /  1018.8 hPa NW 8.0 mph /  12.9 km/h 14.0 mph /  22.5 km/h 92 % 0.00 in /  0 mm
09:16 38.1 °F /  3.4 °C 35.8 °F /  2.1 °C 30.09 in /  1018.8 hPa NNW 8.0 mph /  12.9 km/h 14.0 mph /  22.5 km/h 91 % 0.00 in /  0 mm
09:21 38.3 °F /  3.5 °C 36.0 °F /  2.2 °C 30.09 in /  1018.8 hPa NW 6.0 mph /  9.7 km/h 14.0 mph /  22.5 km/h 91 % 0.00 in /  0 mm
09:26 38.3 °F /  3.5 °C 36.0 °F /  2.2 °C 30.09 in /  1018.8 hPa NW 4.0 mph /  6.4 km/h 14.0 mph /  22.5 km/h 91 % 0.00 in /  0 mm
09:31 38.3 °F /  3.5 °C 36.0 °F /  2.2 °C 30.09 in /  1018.8 hPa NW 1.0 mph /  1.6 km/h 14.0 mph /  22.5 km/h 91 % 0.00 in /  0 mm
09:36 38.5 °F /  3.6 °C 36.1 °F /  2.3 °C 30.09 in /  1018.8 hPa NE 2.0 mph /  3.2 km/h 14.0 mph /  22.5 km/h 91 % 0.00 in /  0 mm
09:41 38.7 °F /  3.7 °C 36.3 °F /  2.4 °C 30.09 in /  1018.8 hPa NNW 3.0 mph /  4.8 km/h 14.0 mph /  22.5 km/h 91 % 0.00 in /  0 mm
09:46 38.7 °F /  3.7 °C 36.0 °F /  2.2 °C 30.09 in /  1018.8 hPa North 6.0 mph /  9.7 km/h 12.0 mph /  19.3 km/h 90 % 0.00 in /  0 mm
09:51 38.7 °F /  3.7 °C 36.0 °F /  2.2 °C 30.09 in /  1018.8 hPa NNW 5.0 mph /  8 km/h 12.0 mph /  19.3 km/h 90 % 0.00 in /  0 mm
09:56 38.7 °F /  3.7 °C 36.0 °F /  2.2 °C 30.09 in /  1018.8 hPa NW 4.0 mph /  6.4 km/h 14.0 mph /  22.5 km/h 90 % 0.00 in /  0 mm
10:01 38.8 °F /  3.8 °C 36.5 °F /  2.5 °C 30.09 in /  1018.8 hPa WNW 6.0 mph /  9.7 km/h 14.0 mph /  22.5 km/h 91 % 0.00 in /  0 mm
10:06 38.7 °F /  3.7 °C 36.0 °F /  2.2 °C 30.09 in /  1018.8 hPa NW 8.0 mph /  12.9 km/h 15.0 mph /  24.1 km/h 90 % 0.00 in /  0 mm
10:11 38.7 °F /  3.7 °C 36.3 °F /  2.4 °C 30.10 in /  1019.2 hPa West 1.0 mph /  1.6 km/h 15.0 mph /  24.1 km/h 91 % 0.00 in /  0 mm
10:16 38.8 °F /  3.8 °C 36.5 °F /  2.5 °C 30.11 in /  1019.5 hPa WNW 5.0 mph /  8 km/h 15.0 mph /  24.1 km/h 91 % 0.00 in /  0 mm
10:21 38.5 °F /  3.6 °C 36.1 °F /  2.3 °C 30.11 in /  1019.5 hPa NW 1.0 mph /  1.6 km/h 15.0 mph /  24.1 km/h 91 % 0.00 in /  0 mm
10:23 38.7 °F /  3.7 °C 36.3 °F /  2.4 °C 30.11 in /  1019.5 hPa NNW 5.0 mph /  8 km/h 15.0 mph /  24.1 km/h 91 % 0.00 in /  0 mm
10:28 38.5 °F /  3.6 °C 36.3 °F /  2.4 °C 30.11 in /  1019.5 hPa NNW 2.0 mph /  3.2 km/h 13.0 mph /  20.9 km/h 92 % 0.00 in /  0 mm
10:33 38.5 °F /  3.6 °C 36.3 °F /  2.4 °C 30.11 in /  1019.5 hPa NW 3.0 mph /  4.8 km/h 13.0 mph /  20.9 km/h 92 % 0.00 in /  0 mm
10:38 38.5 °F /  3.6 °C 36.3 °F /  2.4 °C 30.11 in /  1019.5 hPa North 5.0 mph /  8 km/h 10.0 mph /  16.1 km/h 92 % 0.00 in /  0 mm
10:43 38.1 °F /  3.4 °C 36.0 °F /  2.2 °C 30.11 in /  1019.5 hPa NW 3.0 mph /  4.8 km/h 11.0 mph /  17.7 km/h 92 % 0.00 in /  0 mm
10:48 37.9 °F /  3.3 °C 36.1 °F /  2.3 °C 30.11 in /  1019.5 hPa NW 5.0 mph /  8 km/h 12.0 mph /  19.3 km/h 93 % 0.00 in /  0 mm
10:53 37.9 °F /  3.3 °C 36.1 °F /  2.3 °C 30.11 in /  1019.5 hPa NNW 4.0 mph /  6.4 km/h 12.0 mph /  19.3 km/h 93 % 0.00 in /  0 mm
10:58 37.9 °F /  3.3 °C 35.8 °F /  2.1 °C 30.12 in /  1019.9 hPa NW 5.0 mph /  8 km/h 12.0 mph /  19.3 km/h 92 % 0.00 in /  0 mm
11:03 38.1 °F /  3.4 °C 36.0 °F /  2.2 °C 30.12 in /  1019.9 hPa NW 5.0 mph /  8 km/h 12.0 mph /  19.3 km/h 92 % 0.00 in /  0 mm
11:08 38.5 °F /  3.6 °C 36.1 °F /  2.3 °C 30.11 in /  1019.5 hPa WNW 9.0 mph /  14.5 km/h 14.0 mph /  22.5 km/h 91 % 0.00 in /  0 mm
11:13 38.7 °F /  3.7 °C 36.0 °F /  2.2 °C 30.12 in /  1019.9 hPa NNW 3.0 mph /  4.8 km/h 14.0 mph /  22.5 km/h 90 % 0.00 in /  0 mm
11:18 38.8 °F /  3.8 °C 36.1 °F /  2.3 °C 30.11 in /  1019.5 hPa North 3.0 mph /  4.8 km/h 14.0 mph /  22.5 km/h 90 % 0.00 in /  0 mm
11:23 39.0 °F /  3.9 °C 36.1 °F /  2.3 °C 30.12 in /  1019.9 hPa NNW 2.0 mph /  3.2 km/h 13.0 mph /  20.9 km/h 89 % 0.00 in /  0 mm
11:28 39.0 °F /  3.9 °C 35.8 °F /  2.1 °C 30.12 in /  1019.9 hPa WSW 6.0 mph /  9.7 km/h 11.0 mph /  17.7 km/h 88 % 0.00 in /  0 mm
11:33 38.7 °F /  3.7 °C 35.4 °F /  1.9 °C 30.12 in /  1019.9 hPa North 8.0 mph /  12.9 km/h 11.0 mph /  17.7 km/h 88 % 0.00 in /  0 mm
11:38 38.7 °F /  3.7 °C 35.8 °F /  2.1 °C 30.12 in /  1019.9 hPa NNW 5.0 mph /  8 km/h 13.0 mph /  20.9 km/h 89 % 0.00 in /  0 mm
11:43 38.7 °F /  3.7 °C 35.4 °F /  1.9 °C 30.12 in /  1019.9 hPa WNW 3.0 mph /  4.8 km/h 13.0 mph /  20.9 km/h 88 % 0.00 in /  0 mm
11:48 38.8 °F /  3.8 °C 36.0 °F /  2.2 °C 30.12 in /  1019.9 hPa NW 5.0 mph /  8 km/h 13.0 mph /  20.9 km/h 89 % 0.00 in /  0 mm
11:53 39.0 °F /  3.9 °C 35.4 °F /  1.9 °C 30.12 in /  1019.9 hPa WNW 6.0 mph /  9.7 km/h 14.0 mph /  22.5 km/h 87 % 0.00 in /  0 mm
11:58 39.0 °F /  3.9 °C 35.4 °F /  1.9 °C 30.11 in /  1019.5 hPa NW 8.0 mph /  12.9 km/h 14.0 mph /  22.5 km/h 87 % 0.00 in /  0 mm
12:03 39.0 °F /  3.9 °C 35.4 °F /  1.9 °C 30.11 in /  1019.5 hPa North 6.0 mph /  9.7 km/h 14.0 mph /  22.5 km/h 87 % 0.00 in /  0 mm
12:08 39.4 °F /  4.1 °C 35.8 °F /  2.1 °C 30.11 in /  1019.5 hPa NNW 5.0 mph /  8 km/h 12.0 mph /  19.3 km/h 87 % 0.00 in /  0 mm
12:13 39.6 °F /  4.2 °C 36.0 °F /  2.2 °C 30.11 in /  1019.5 hPa NNW 3.0 mph /  4.8 km/h 12.0 mph /  19.3 km/h 87 % 0.00 in /  0 mm
12:18 39.4 °F /  4.1 °C 35.6 °F /  2 °C 30.11 in /  1019.5 hPa NNW 7.0 mph /  11.3 km/h 12.0 mph /  19.3 km/h 86 % 0.00 in /  0 mm
12:23 39.0 °F /  3.9 °C 35.2 °F /  1.8 °C 30.11 in /  1019.5 hPa WNW 8.0 mph /  12.9 km/h 12.0 mph /  19.3 km/h 86 % 0.00 in /  0 mm
12:28 39.0 °F /  3.9 °C 35.2 °F /  1.8 °C 30.11 in /  1019.5 hPa NNW 5.0 mph /  8 km/h 15.0 mph /  24.1 km/h 86 % 0.00 in /  0 mm
12:33 39.0 °F /  3.9 °C 35.2 °F /  1.8 °C 30.11 in /  1019.5 hPa NW 3.0 mph /  4.8 km/h 16.0 mph /  25.7 km/h 86 % 0.00 in /  0 mm
12:38 39.4 °F /  4.1 °C 35.2 °F /  1.8 °C 30.11 in /  1019.5 hPa NNW 5.0 mph /  8 km/h 16.0 mph /  25.7 km/h 85 % 0.00 in /  0 mm
12:43 39.6 °F /  4.2 °C 35.4 °F /  1.9 °C 30.11 in /  1019.5 hPa WNW 4.0 mph /  6.4 km/h 16.0 mph /  25.7 km/h 85 % 0.00 in /  0 mm
12:48 39.6 °F /  4.2 °C 35.4 °F /  1.9 °C 30.11 in /  1019.5 hPa NW 4.0 mph /  6.4 km/h 13.0 mph /  20.9 km/h 85 % 0.00 in /  0 mm
12:53 39.6 °F /  4.2 °C 35.4 °F /  1.9 °C 30.11 in /  1019.5 hPa West 6.0 mph /  9.7 km/h 12.0 mph /  19.3 km/h 85 % 0.00 in /  0 mm
12:58 39.4 °F /  4.1 °C 35.2 °F /  1.8 °C 30.11 in /  1019.5 hPa NW 7.0 mph /  11.3 km/h 12.0 mph /  19.3 km/h 85 % 0.00 in /  0 mm
13:03 39.4 °F /  4.1 °C 35.2 °F /  1.8 °C 30.11 in /  1019.5 hPa NW 8.0 mph /  12.9 km/h 14.0 mph /  22.5 km/h 85 % 0.00 in /  0 mm
13:08 39.4 °F /  4.1 °C 35.2 °F /  1.8 °C 30.10 in /  1019.2 hPa NW 5.0 mph /  8 km/h 16.0 mph /  25.7 km/h 85 % 0.00 in /  0 mm
13:13 39.2 °F /  4 °C 35.1 °F /  1.7 °C 30.10 in /  1019.2 hPa NNW 4.0 mph /  6.4 km/h 16.0 mph /  25.7 km/h 85 % 0.00 in /  0 mm
13:18 39.2 °F /  4 °C 35.1 °F /  1.7 °C 30.10 in /  1019.2 hPa NW 4.0 mph /  6.4 km/h 16.0 mph /  25.7 km/h 85 % 0.00 in /  0 mm
13:23 39.0 °F /  3.9 °C 34.9 °F /  1.6 °C 30.09 in /  1018.8 hPa NW 2.0 mph /  3.2 km/h 13.0 mph /  20.9 km/h 85 % 0.00 in /  0 mm
13:28 38.8 °F /  3.8 °C 34.7 °F /  1.5 °C 30.09 in /  1018.8 hPa NW 8.0 mph /  12.9 km/h 13.0 mph /  20.9 km/h 85 % 0.00 in /  0 mm
13:33 38.5 °F /  3.6 °C 34.7 °F /  1.5 °C 30.09 in /  1018.8 hPa NW 6.0 mph /  9.7 km/h 14.0 mph /  22.5 km/h 86 % 0.00 in /  0 mm
13:38 38.3 °F /  3.5 °C 34.5 °F /  1.4 °C 30.09 in /  1018.8 hPa NNW 4.0 mph /  6.4 km/h 14.0 mph /  22.5 km/h 86 % 0.00 in /  0 mm
13:43 38.7 °F /  3.7 °C 35.1 °F /  1.7 °C 30.09 in /  1018.8 hPa NNW 5.0 mph /  8 km/h 14.0 mph /  22.5 km/h 87 % 0.00 in /  0 mm
13:48 38.5 °F /  3.6 °C 34.3 °F /  1.3 °C 30.10 in /  1019.2 hPa NW 4.0 mph /  6.4 km/h 13.0 mph /  20.9 km/h 85 % 0.00 in /  0 mm
13:53 38.5 °F /  3.6 °C 34.2 °F /  1.2 °C 30.09 in /  1018.8 hPa WSW 4.0 mph /  6.4 km/h 13.0 mph /  20.9 km/h 84 % 0.00 in /  0 mm
13:58 38.3 °F /  3.5 °C 34.2 °F /  1.2 °C 30.10 in /  1019.2 hPa North 4.0 mph /  6.4 km/h 16.0 mph /  25.7 km/h 85 % 0.00 in /  0 mm
14:03 38.5 °F /  3.6 °C 34.2 °F /  1.2 °C 30.10 in /  1019.2 hPa WNW 12.0 mph /  19.3 km/h 16.0 mph /  25.7 km/h 84 % 0.00 in /  0 mm
14:08 38.3 °F /  3.5 °C 34.0 °F /  1.1 °C 30.10 in /  1019.2 hPa NNW 6.0 mph /  9.7 km/h 16.0 mph /  25.7 km/h 84 % 0.00 in /  0 mm
14:13 38.3 °F /  3.5 °C 34.0 °F /  1.1 °C 30.10 in /  1019.2 hPa NW 14.0 mph /  22.5 km/h 16.0 mph /  25.7 km/h 84 % 0.00 in /  0 mm
14:18 38.1 °F /  3.4 °C 33.8 °F /  1 °C 30.10 in /  1019.2 hPa NNW 6.0 mph /  9.7 km/h 16.0 mph /  25.7 km/h 84 % 0.00 in /  0 mm
14:23 38.5 °F /  3.6 °C 34.2 °F /  1.2 °C 30.10 in /  1019.2 hPa NNW 3.0 mph /  4.8 km/h 15.0 mph /  24.1 km/h 84 % 0.00 in /  0 mm
14:28 38.5 °F /  3.6 °C 33.8 °F /  1 °C 30.10 in /  1019.2 hPa West 4.0 mph /  6.4 km/h 15.0 mph /  24.1 km/h 83 % 0.00 in /  0 mm
14:33 38.5 °F /  3.6 °C 33.8 °F /  1 °C 30.11 in /  1019.5 hPa NW 4.0 mph /  6.4 km/h 17.0 mph /  27.4 km/h 83 % 0.00 in /  0 mm
14:38 38.5 °F /  3.6 °C 33.8 °F /  1 °C 30.11 in /  1019.5 hPa North 7.0 mph /  11.3 km/h 17.0 mph /  27.4 km/h 83 % 0.00 in /  0 mm
14:43 38.3 °F /  3.5 °C 33.3 °F /  0.7 °C 30.11 in /  1019.5 hPa NW 7.0 mph /  11.3 km/h 17.0 mph /  27.4 km/h 82 % 0.00 in /  0 mm
14:48 38.3 °F /  3.5 °C 33.3 °F /  0.7 °C 30.11 in /  1019.5 hPa WNW 7.0 mph /  11.3 km/h 12.0 mph /  19.3 km/h 82 % 0.00 in /  0 mm
14:53 38.1 °F /  3.4 °C 33.1 °F /  0.6 °C 30.12 in /  1019.9 hPa NNW 7.0 mph /  11.3 km/h 15.0 mph /  24.1 km/h 82 % 0.00 in /  0 mm
14:59 38.1 °F /  3.4 °C 33.1 °F /  0.6 °C 30.12 in /  1019.9 hPa North 8.0 mph /  12.9 km/h 15.0 mph /  24.1 km/h 82 % 0.00 in /  0 mm
15:04 38.3 °F /  3.5 °C 32.9 °F /  0.5 °C 30.12 in /  1019.9 hPa NW 8.0 mph /  12.9 km/h 15.0 mph /  24.1 km/h 81 % 0.00 in /  0 mm
15:09 38.5 °F /  3.6 °C 33.1 °F /  0.6 °C 30.12 in /  1019.9 hPa NNE 9.0 mph /  14.5 km/h 14.0 mph /  22.5 km/h 81 % 0.00 in /  0 mm
15:14 38.5 °F /  3.6 °C 32.9 °F /  0.5 °C 30.12 in /  1019.9 hPa NW 5.0 mph /  8 km/h 14.0 mph /  22.5 km/h 80 % 0.00 in /  0 mm
15:19 38.7 °F /  3.7 °C 33.1 °F /  0.6 °C 30.12 in /  1019.9 hPa WNW 9.0 mph /  14.5 km/h 14.0 mph /  22.5 km/h 80 % 0.00 in /  0 mm
15:24 38.7 °F /  3.7 °C 33.1 °F /  0.6 °C 30.13 in /  1020.2 hPa NNW 7.0 mph /  11.3 km/h 13.0 mph /  20.9 km/h 80 % 0.00 in /  0 mm
15:29 38.8 °F /  3.8 °C 33.3 °F /  0.7 °C 30.13 in /  1020.2 hPa NNW 2.0 mph /  3.2 km/h 13.0 mph /  20.9 km/h 80 % 0.00 in /  0 mm
15:34 38.8 °F /  3.8 °C 32.9 °F /  0.5 °C 30.13 in /  1020.2 hPa NNW 7.0 mph /  11.3 km/h 14.0 mph /  22.5 km/h 79 % 0.00 in /  0 mm
15:39 38.8 °F /  3.8 °C 32.9 °F /  0.5 °C 30.13 in /  1020.2 hPa NW 6.0 mph /  9.7 km/h 14.0 mph /  22.5 km/h 79 % 0.00 in /  0 mm
15:44 38.8 °F /  3.8 °C 32.9 °F /  0.5 °C 30.13 in /  1020.2 hPa NW 4.0 mph /  6.4 km/h 14.0 mph /  22.5 km/h 79 % 0.00 in /  0 mm
15:49 38.8 °F /  3.8 °C 32.9 °F /  0.5 °C 30.13 in /  1020.2 hPa NNE 8.0 mph /  12.9 km/h 13.0 mph /  20.9 km/h 79 % 0.00 in /  0 mm
15:54 38.7 °F /  3.7 °C 32.7 °F /  0.4 °C 30.13 in /  1020.2 hPa NW 4.0 mph /  6.4 km/h 15.0 mph /  24.1 km/h 79 % 0.00 in /  0 mm
15:59 38.7 °F /  3.7 °C 32.7 °F /  0.4 °C 30.12 in /  1019.9 hPa WNW 6.0 mph /  9.7 km/h 15.0 mph /  24.1 km/h 79 % 0.00 in /  0 mm
16:04 38.8 °F /  3.8 °C 32.9 °F /  0.5 °C 30.12 in /  1019.9 hPa North 9.0 mph /  14.5 km/h 15.0 mph /  24.1 km/h 79 % 0.00 in /  0 mm
16:09 38.7 °F /  3.7 °C 32.7 °F /  0.4 °C 30.12 in /  1019.9 hPa North 9.0 mph /  14.5 km/h 12.0 mph /  19.3 km/h 79 % 0.00 in /  0 mm
16:14 38.5 °F /  3.6 °C 32.9 °F /  0.5 °C 30.11 in /  1019.5 hPa NNW 10.0 mph /  16.1 km/h 12.0 mph /  19.3 km/h 80 % 0.00 in /  0 mm
16:19 38.5 °F /  3.6 °C 32.9 °F /  0.5 °C 30.12 in /  1019.9 hPa NNW 3.0 mph /  4.8 km/h 13.0 mph /  20.9 km/h 80 % 0.00 in /  0 mm
16:24 38.5 °F /  3.6 °C 32.9 °F /  0.5 °C 30.12 in /  1019.9 hPa NW 4.0 mph /  6.4 km/h 13.0 mph /  20.9 km/h 80 % 0.00 in /  0 mm
16:29 38.5 °F /  3.6 °C 32.9 °F /  0.5 °C 30.12 in /  1019.9 hPa NW 7.0 mph /  11.3 km/h 13.0 mph /  20.9 km/h 80 % 0.00 in /  0 mm
16:34 38.5 °F /  3.6 °C 32.5 °F /  0.3 °C 30.13 in /  1020.2 hPa West 8.0 mph /  12.9 km/h 12.0 mph /  19.3 km/h 79 % 0.00 in /  0 mm
16:39 38.7 °F /  3.7 °C 33.1 °F /  0.6 °C 30.13 in /  1020.2 hPa NW 5.0 mph /  8 km/h 12.0 mph /  19.3 km/h 80 % 0.00 in /  0 mm
16:44 38.8 °F /  3.8 °C 32.9 °F /  0.5 °C 30.13 in /  1020.2 hPa North 5.0 mph /  8 km/h 12.0 mph /  19.3 km/h 79 % 0.00 in /  0 mm
16:49 38.8 °F /  3.8 °C 32.5 °F /  0.3 °C 30.14 in /  1020.5 hPa NNW 2.0 mph /  3.2 km/h 11.0 mph /  17.7 km/h 78 % 0.00 in /  0 mm
16:54 38.8 °F /  3.8 °C 32.5 °F /  0.3 °C 30.14 in /  1020.5 hPa NNW 7.0 mph /  11.3 km/h 13.0 mph /  20.9 km/h 78 % 0.00 in /  0 mm
16:59 38.8 °F /  3.8 °C 32.5 °F /  0.3 °C 30.14 in /  1020.5 hPa NW 5.0 mph /  8 km/h 13.0 mph /  20.9 km/h 78 % 0.00 in /  0 mm
17:04 38.8 °F /  3.8 °C 32.5 °F /  0.3 °C 30.14 in /  1020.5 hPa NW 6.0 mph /  9.7 km/h 15.0 mph /  24.1 km/h 78 % 0.00 in /  0 mm
17:09 38.8 °F /  3.8 °C 32.5 °F /  0.3 °C 30.14 in /  1020.5 hPa WNW 5.0 mph /  8 km/h 15.0 mph /  24.1 km/h 78 % 0.00 in /  0 mm
17:14 38.7 °F /  3.7 °C 32.4 °F /  0.2 °C 30.14 in /  1020.5 hPa NW 6.0 mph /  9.7 km/h 15.0 mph /  24.1 km/h 78 % 0.00 in /  0 mm
17:19 38.8 °F /  3.8 °C 32.5 °F /  0.3 °C 30.13 in /  1020.2 hPa NW 4.0 mph /  6.4 km/h 14.0 mph /  22.5 km/h 78 % 0.00 in /  0 mm
17:24 38.8 °F /  3.8 °C 32.5 °F /  0.3 °C 30.13 in /  1020.2 hPa NW 4.0 mph /  6.4 km/h 14.0 mph /  22.5 km/h 78 % 0.00 in /  0 mm
17:29 38.8 °F /  3.8 °C 32.5 °F /  0.3 °C 30.14 in /  1020.5 hPa WNW 7.0 mph /  11.3 km/h 15.0 mph /  24.1 km/h 78 % 0.00 in /  0 mm
17:34 38.7 °F /  3.7 °C 32.0 °F /  0 °C 30.14 in /  1020.5 hPa NW 10.0 mph /  16.1 km/h 15.0 mph /  24.1 km/h 77 % 0.00 in /  0 mm
17:39 38.7 °F /  3.7 °C 32.4 °F /  0.2 °C 30.15 in /  1020.9 hPa NW 5.0 mph /  8 km/h 15.0 mph /  24.1 km/h 78 % 0.00 in /  0 mm
17:44 38.7 °F /  3.7 °C 32.4 °F /  0.2 °C 30.15 in /  1020.9 hPa NW 5.0 mph /  8 km/h 14.0 mph /  22.5 km/h 78 % 0.00 in /  0 mm
17:49 38.7 °F /  3.7 °C 32.4 °F /  0.2 °C 30.16 in /  1021.2 hPa NNW 7.0 mph /  11.3 km/h 13.0 mph /  20.9 km/h 78 % 0.00 in /  0 mm
17:54 38.7 °F /  3.7 °C 32.4 °F /  0.2 °C 30.15 in /  1020.9 hPa NW 5.0 mph /  8 km/h 13.0 mph /  20.9 km/h 78 % 0.00 in /  0 mm
17:59 38.7 °F /  3.7 °C 32.4 °F /  0.2 °C 30.15 in /  1020.9 hPa NNW 4.0 mph /  6.4 km/h 13.0 mph /  20.9 km/h 78 % 0.00 in /  0 mm
18:04 38.7 °F /  3.7 °C 32.4 °F /  0.2 °C 30.15 in /  1020.9 hPa NW 4.0 mph /  6.4 km/h 13.0 mph /  20.9 km/h 78 % 0.00 in /  0 mm
18:09 38.8 °F /  3.8 °C 32.5 °F /  0.3 °C 30.16 in /  1021.2 hPa NW 4.0 mph /  6.4 km/h 13.0 mph /  20.9 km/h 78 % 0.00 in /  0 mm
18:14 38.8 °F /  3.8 °C 32.5 °F /  0.3 °C 30.17 in /  1021.6 hPa NW 5.0 mph /  8 km/h 13.0 mph /  20.9 km/h 78 % 0.00 in /  0 mm
18:19 38.8 °F /  3.8 °C 32.5 °F /  0.3 °C 30.17 in /  1021.6 hPa NNW 3.0 mph /  4.8 km/h 11.0 mph /  17.7 km/h 78 % 0.00 in /  0 mm
18:24 38.8 °F /  3.8 °C 32.5 °F /  0.3 °C 30.17 in /  1021.6 hPa NW 5.0 mph /  8 km/h 11.0 mph /  17.7 km/h 78 % 0.00 in /  0 mm
18:29 38.8 °F /  3.8 °C 32.5 °F /  0.3 °C 30.17 in /  1021.6 hPa North 3.0 mph /  4.8 km/h 13.0 mph /  20.9 km/h 78 % 0.00 in /  0 mm
18:34 38.8 °F /  3.8 °C 32.5 °F /  0.3 °C 30.18 in /  1021.9 hPa NW 4.0 mph /  6.4 km/h 13.0 mph /  20.9 km/h 78 % 0.00 in /  0 mm
18:39 38.8 °F /  3.8 °C 32.5 °F /  0.3 °C 30.18 in /  1021.9 hPa NNW 5.0 mph /  8 km/h 13.0 mph /  20.9 km/h 78 % 0.00 in /  0 mm
18:44 38.8 °F /  3.8 °C 32.9 °F /  0.5 °C 30.18 in /  1021.9 hPa NNW 4.0 mph /  6.4 km/h 11.0 mph /  17.7 km/h 79 % 0.00 in /  0 mm
18:49 38.8 °F /  3.8 °C 32.9 °F /  0.5 °C 30.18 in /  1021.9 hPa North 6.0 mph /  9.7 km/h 11.0 mph /  17.7 km/h 79 % 0.00 in /  0 mm
18:54 38.8 °F /  3.8 °C 32.9 °F /  0.5 °C 30.19 in /  1022.2 hPa NNW 3.0 mph /  4.8 km/h 12.0 mph /  19.3 km/h 79 % 0.00 in /  0 mm
18:59 38.8 °F /  3.8 °C 32.9 °F /  0.5 °C 30.19 in /  1022.2 hPa NNW 6.0 mph /  9.7 km/h 12.0 mph /  19.3 km/h 79 % 0.00 in /  0 mm
19:04 38.8 °F /  3.8 °C 33.3 °F /  0.7 °C 30.19 in /  1022.2 hPa North 5.0 mph /  8 km/h 12.0 mph /  19.3 km/h 80 % 0.00 in /  0 mm
19:09 38.8 °F /  3.8 °C 32.9 °F /  0.5 °C 30.20 in /  1022.6 hPa NNW 4.0 mph /  6.4 km/h 12.0 mph /  19.3 km/h 79 % 0.00 in /  0 mm
19:14 38.7 °F /  3.7 °C 32.7 °F /  0.4 °C 30.20 in /  1022.6 hPa North 5.0 mph /  8 km/h 9.0 mph /  14.5 km/h 79 % 0.00 in /  0 mm
19:19 38.5 °F /  3.6 °C 32.9 °F /  0.5 °C 30.20 in /  1022.6 hPa NW 4.0 mph /  6.4 km/h 8.0 mph /  12.9 km/h 80 % 0.00 in /  0 mm
19:24 38.3 °F /  3.5 °C 32.7 °F /  0.4 °C 30.20 in /  1022.6 hPa WNW 1.0 mph /  1.6 km/h 10.0 mph /  16.1 km/h 80 % 0.00 in /  0 mm
19:29 38.1 °F /  3.4 °C 32.5 °F /  0.3 °C 30.21 in /  1022.9 hPa North 7.0 mph /  11.3 km/h 10.0 mph /  16.1 km/h 80 % 0.00 in /  0 mm
19:34 38.1 °F /  3.4 °C 32.5 °F /  0.3 °C 30.21 in /  1022.9 hPa NW 2.0 mph /  3.2 km/h 10.0 mph /  16.1 km/h 80 % 0.00 in /  0 mm
19:39 37.9 °F /  3.3 °C 32.4 °F /  0.2 °C 30.21 in /  1022.9 hPa NW 7.0 mph /  11.3 km/h 10.0 mph /  16.1 km/h 80 % 0.00 in /  0 mm
19:44 37.9 °F /  3.3 °C 32.7 °F /  0.4 °C 30.21 in /  1022.9 hPa NNW 4.0 mph /  6.4 km/h 12.0 mph /  19.3 km/h 81 % 0.00 in /  0 mm
19:49 37.9 °F /  3.3 °C 32.7 °F /  0.4 °C 30.21 in /  1022.9 hPa NW 5.0 mph /  8 km/h 12.0 mph /  19.3 km/h 81 % 0.00 in /  0 mm
19:54 37.8 °F /  3.2 °C 32.5 °F /  0.3 °C 30.22 in /  1023.2 hPa NW 3.0 mph /  4.8 km/h 12.0 mph /  19.3 km/h 81 % 0.00 in /  0 mm
19:59 37.8 °F /  3.2 °C 32.5 °F /  0.3 °C 30.22 in /  1023.2 hPa North 10.0 mph /  16.1 km/h 10.0 mph /  16.1 km/h 81 % 0.00 in /  0 mm
20:04 37.8 °F /  3.2 °C 32.5 °F /  0.3 °C 30.22 in /  1023.2 hPa NNW 3.0 mph /  4.8 km/h 15.0 mph /  24.1 km/h 81 % 0.00 in /  0 mm
20:09 37.8 °F /  3.2 °C 32.7 °F /  0.4 °C 30.22 in /  1023.2 hPa WNW 4.0 mph /  6.4 km/h 15.0 mph /  24.1 km/h 82 % 0.00 in /  0 mm
20:14 37.8 °F /  3.2 °C 32.7 °F /  0.4 °C 30.23 in /  1023.6 hPa NW 6.0 mph /  9.7 km/h 15.0 mph /  24.1 km/h 82 % 0.00 in /  0 mm
20:19 37.8 °F /  3.2 °C 32.7 °F /  0.4 °C 30.23 in /  1023.6 hPa WNW 3.0 mph /  4.8 km/h 11.0 mph /  17.7 km/h 82 % 0.00 in /  0 mm
20:24 37.8 °F /  3.2 °C 33.1 °F /  0.6 °C 30.23 in /  1023.6 hPa NNW 6.0 mph /  9.7 km/h 10.0 mph /  16.1 km/h 83 % 0.00 in /  0 mm
20:29 37.6 °F /  3.1 °C 32.5 °F /  0.3 °C 30.23 in /  1023.6 hPa NNW 8.0 mph /  12.9 km/h 10.0 mph /  16.1 km/h 82 % 0.00 in /  0 mm
20:34 37.4 °F /  3 °C 32.4 °F /  0.2 °C 30.24 in /  1023.9 hPa NW 4.0 mph /  6.4 km/h 11.0 mph /  17.7 km/h 82 % 0.00 in /  0 mm
20:39 37.4 °F /  3 °C 32.7 °F /  0.4 °C 30.23 in /  1023.6 hPa NNW 3.0 mph /  4.8 km/h 11.0 mph /  17.7 km/h 83 % 0.00 in /  0 mm
20:44 37.4 °F /  3 °C 32.7 °F /  0.4 °C 30.23 in /  1023.6 hPa NNE 8.0 mph /  12.9 km/h 11.0 mph /  17.7 km/h 83 % 0.00 in /  0 mm
20:49 37.6 °F /  3.1 °C 32.9 °F /  0.5 °C 30.22 in /  1023.2 hPa North 7.0 mph /  11.3 km/h 10.0 mph /  16.1 km/h 83 % 0.00 in /  0 mm
20:54 37.6 °F /  3.1 °C 32.9 °F /  0.5 °C 30.22 in /  1023.2 hPa North 2.0 mph /  3.2 km/h 10.0 mph /  16.1 km/h 83 % 0.00 in /  0 mm
20:59 37.6 °F /  3.1 °C 32.9 °F /  0.5 °C 30.23 in /  1023.6 hPa NW 1.0 mph /  1.6 km/h 10.0 mph /  16.1 km/h 83 % 0.00 in /  0 mm
21:04 37.6 °F /  3.1 °C 32.9 °F /  0.5 °C 30.24 in /  1023.9 hPa NNW 2.0 mph /  3.2 km/h 10.0 mph /  16.1 km/h 83 % 0.00 in /  0 mm
21:09 37.6 °F /  3.1 °C 32.9 °F /  0.5 °C 30.25 in /  1024.3 hPa NW 4.0 mph /  6.4 km/h 10.0 mph /  16.1 km/h 83 % 0.00 in /  0 mm
21:14 37.4 °F /  3 °C 32.7 °F /  0.4 °C 30.25 in /  1024.3 hPa NNW 6.0 mph /  9.7 km/h 6.0 mph /  9.7 km/h 83 % 0.00 in /  0 mm
21:19 37.2 °F /  2.9 °C 32.5 °F /  0.3 °C 30.24 in /  1023.9 hPa WNW 3.0 mph /  4.8 km/h 8.0 mph /  12.9 km/h 83 % 0.00 in /  0 mm
21:24 37.2 °F /  2.9 °C 32.5 °F /  0.3 °C 30.24 in /  1023.9 hPa NNE 5.0 mph /  8 km/h 8.0 mph /  12.9 km/h 83 % 0.00 in /  0 mm
21:29 37.2 °F /  2.9 °C 32.5 °F /  0.3 °C 30.24 in /  1023.9 hPa NW 7.0 mph /  11.3 km/h 10.0 mph /  16.1 km/h 83 % 0.00 in /  0 mm
21:34 37.2 °F /  2.9 °C 32.5 °F /  0.3 °C 30.25 in /  1024.3 hPa NNW 6.0 mph /  9.7 km/h 10.0 mph /  16.1 km/h 83 % 0.00 in /  0 mm
21:39 37.2 °F /  2.9 °C 32.9 °F /  0.5 °C 30.25 in /  1024.3 hPa NW 6.0 mph /  9.7 km/h 10.0 mph /  16.1 km/h 84 % 0.00 in /  0 mm
21:44 37.2 °F /  2.9 °C 32.9 °F /  0.5 °C 30.25 in /  1024.3 hPa NNW 3.0 mph /  4.8 km/h 10.0 mph /  16.1 km/h 84 % 0.00 in /  0 mm
21:49 37.0 °F /  2.8 °C 32.7 °F /  0.4 °C 30.25 in /  1024.3 hPa NNW 2.0 mph /  3.2 km/h 8.0 mph /  12.9 km/h 84 % 0.00 in /  0 mm
21:54 37.0 °F /  2.8 °C 32.4 °F /  0.2 °C 30.25 in /  1024.3 hPa North 3.0 mph /  4.8 km/h 8.0 mph /  12.9 km/h 83 % 0.00 in /  0 mm
21:59 37.0 °F /  2.8 °C 32.4 °F /  0.2 °C 30.25 in /  1024.3 hPa NNW 4.0 mph /  6.4 km/h 9.0 mph /  14.5 km/h 83 % 0.00 in /  0 mm
22:04 37.0 °F /  2.8 °C 32.7 °F /  0.4 °C 30.24 in /  1023.9 hPa NNW 2.0 mph /  3.2 km/h 10.0 mph /  16.1 km/h 84 % 0.00 in /  0 mm
22:09 37.0 °F /  2.8 °C 32.7 °F /  0.4 °C 30.24 in /  1023.9 hPa NW 5.0 mph /  8 km/h 10.0 mph /  16.1 km/h 84 % 0.00 in /  0 mm
22:15 37.0 °F /  2.8 °C 32.7 °F /  0.4 °C 30.25 in /  1024.3 hPa NW 4.0 mph /  6.4 km/h 10.0 mph /  16.1 km/h 84 % 0.00 in /  0 mm
22:19 37.0 °F /  2.8 °C 32.7 °F /  0.4 °C 30.25 in /  1024.3 hPa NW 5.0 mph /  8 km/h 10.0 mph /  16.1 km/h 84 % 0.00 in /  0 mm
22:24 36.9 °F /  2.7 °C 32.5 °F /  0.3 °C 30.25 in /  1024.3 hPa NNW 2.0 mph /  3.2 km/h 8.0 mph /  12.9 km/h 84 % 0.00 in /  0 mm
22:30 36.9 °F /  2.7 °C 32.7 °F /  0.4 °C 30.24 in /  1023.9 hPa NW 10.0 mph /  16.1 km/h 10.0 mph /  16.1 km/h 85 % 0.00 in /  0 mm
22:35 36.9 °F /  2.7 °C 32.5 °F /  0.3 °C 30.24 in /  1023.9 hPa NW 4.0 mph /  6.4 km/h 10.0 mph /  16.1 km/h 84 % 0.00 in /  0 mm
22:40 37.0 °F /  2.8 °C 32.9 °F /  0.5 °C 30.24 in /  1023.9 hPa NNW 1.0 mph /  1.6 km/h 10.0 mph /  16.1 km/h 85 % 0.00 in /  0 mm
22:45 37.0 °F /  2.8 °C 32.9 °F /  0.5 °C 30.25 in /  1024.3 hPa NW 1.0 mph /  1.6 km/h 10.0 mph /  16.1 km/h 85 % 0.00 in /  0 mm
22:50 36.9 °F /  2.7 °C 32.5 °F /  0.3 °C 30.25 in /  1024.3 hPa NNW 7.0 mph /  11.3 km/h 9.0 mph /  14.5 km/h 84 % 0.00 in /  0 mm
22:55 36.9 °F /  2.7 °C 32.7 °F /  0.4 °C 30.25 in /  1024.3 hPa NW 1.0 mph /  1.6 km/h 10.0 mph /  16.1 km/h 85 % 0.00 in /  0 mm
23:00 36.9 °F /  2.7 °C 32.5 °F /  0.3 °C 30.25 in /  1024.3 hPa NW 2.0 mph /  3.2 km/h 10.0 mph /  16.1 km/h 84 % 0.00 in /  0 mm
23:05 36.9 °F /  2.7 °C 32.5 °F /  0.3 °C 30.25 in /  1024.3 hPa North 5.0 mph /  8 km/h 10.0 mph /  16.1 km/h 84 % 0.00 in /  0 mm
23:10 36.9 °F /  2.7 °C 32.5 °F /  0.3 °C 30.25 in /  1024.3 hPa NW 2.0 mph /  3.2 km/h 9.0 mph /  14.5 km/h 84 % 0.00 in /  0 mm
23:15 36.9 °F /  2.7 °C 32.5 °F /  0.3 °C 30.26 in /  1024.6 hPa NW 2.0 mph /  3.2 km/h 10.0 mph /  16.1 km/h 84 % 0.00 in /  0 mm
23:20 36.7 °F /  2.6 °C 32.4 °F /  0.2 °C 30.26 in /  1024.6 hPa NNW 2.0 mph /  3.2 km/h 10.0 mph /  16.1 km/h 84 % 0.00 in /  0 mm
23:25 36.9 °F /  2.7 °C 32.5 °F /  0.3 °C 30.27 in /  1024.9 hPa NE 3.0 mph /  4.8 km/h 9.0 mph /  14.5 km/h 84 % 0.00 in /  0 mm
23:30 36.9 °F /  2.7 °C 32.5 °F /  0.3 °C 30.27 in /  1024.9 hPa Calm   9.0 mph /  14.5 km/h 84 % 0.00 in /  0 mm
23:35 36.9 °F /  2.7 °C 32.5 °F /  0.3 °C 30.27 in /  1024.9 hPa NNW 4.0 mph /  6.4 km/h 8.0 mph /  12.9 km/h 84 % 0.00 in /  0 mm
23:40 36.9 °F /  2.7 °C 32.5 °F /  0.3 °C 30.27 in /  1024.9 hPa North 5.0 mph /  8 km/h 8.0 mph /  12.9 km/h 84 % 0.00 in /  0 mm
23:45 36.9 °F /  2.7 °C 32.5 °F /  0.3 °C 30.27 in /  1024.9 hPa NW 2.0 mph /  3.2 km/h 8.0 mph /  12.9 km/h 84 % 0.00 in /  0 mm
23:50 36.9 °F /  2.7 °C 32.5 °F /  0.3 °C 30.28 in /  1025.3 hPa NNW 2.0 mph /  3.2 km/h 8.0 mph /  12.9 km/h 84 % 0.00 in /  0 mm
23:55 36.9 °F /  2.7 °C 32.5 °F /  0.3 °C 30.28 in /  1025.3 hPa NW 4.0 mph /  6.4 km/h 7.0 mph /  11.3 km/h 84 % 0.00 in /  0 mm
Spring, Texas: Villages of Bridgestone
Compliments of Weather Underground - 3 mb

Script developed by  Jim McMurry - jmcmurry@mwt.net Adapted for the template by  Wim van der Kuil - Leuven-Template.eu

You find our weather info also at:

UK Metoffice

WeatherCloud

Weather Underground

Mid-South Weather Network

AWEKAS

Citizen Weather Observer Program (CWOP)

HAMweather, WeatherForYou, PWS Weather

Equipment we use:

Weather-station
Davis Vantage Vue

Weather-program
Meteohub

Weather-server
Debian 7.9 x86 (Guest)

Provider
DreamHost

Davis Vantage Vue

Meteohub

Debian 7.9 x86 (Guest)

DreamHost